Time;durP1;ratioP1;P1;durP2;ratioP2;P2;SDS_P1;SDS_P2;PMS_P1;PMS_P2;Temp;Humidity;BMP_temperature;BMP_pressure;BME280_temperature;BME280_humidity;BME280_pressure;Samples;Min_cycle;Max_cycle;Signal;HPM_P1;HPM_P2
2023/07/04 00:00:23;;;;;;;3.53;2.33;;;16.60;1.00;;;;;;5060168;28;20208;-79
2023/07/04 00:02:52;;;;;;;2.87;2.23;;;16.60;1.00;;;;;;5060491;28;20198;-79
2023/07/04 00:05:17;;;;;;;2.77;2.20;;;16.70;1.00;;;;;;5059209;28;20177;-81
2023/07/04 00:07:43;;;;;;;2.93;2.17;;;16.60;1.00;;;;;;5060214;28;20562;-79
2023/07/04 00:10:09;;;;;;;4.53;2.47;;;16.60;1.00;;;;;;5060873;28;20181;-79
2023/07/04 00:12:35;;;;;;;2.57;2.03;;;16.60;40.20;;;;;;5062076;28;20263;-79
2023/07/04 00:15:01;;;;;;;3.97;2.13;;;16.50;90.50;;;;;;5059803;28;20173;-79
2023/07/04 00:17:26;;;;;;;3.40;2.10;;;16.60;99.90;;;;;;5061138;28;20181;-79
2023/07/04 00:19:53;;;;;;;2.30;2.10;;;16.50;99.90;;;;;;5059531;28;20198;-80
2023/07/04 00:22:18;;;;;;;3.70;2.40;;;16.50;99.90;;;;;;5061450;28;20194;-81
2023/07/04 00:24:44;;;;;;;2.50;2.20;;;16.50;99.90;;;;;;5060017;28;20387;-79
2023/07/04 00:27:12;;;;;;;4.07;2.30;;;16.50;99.90;;;;;;5059978;28;20184;-80
2023/07/04 00:29:38;;;;;;;4.40;2.40;;;16.50;99.90;;;;;;5058930;28;20174;-79
2023/07/04 00:32:05;;;;;;;2.97;2.13;;;16.50;99.90;;;;;;5059393;28;20181;-79
2023/07/04 00:34:31;;;;;;;3.70;2.50;;;16.50;99.90;;;;;;5060885;28;20173;-79
2023/07/04 00:36:59;;;;;;;3.20;2.50;;;16.50;99.90;;;;;;5059491;28;20180;-81
2023/07/04 00:39:26;;;;;;;3.87;2.37;;;16.50;99.90;;;;;;5061367;28;20177;-80
2023/07/04 00:41:52;;;;;;;3.33;2.57;;;16.50;99.90;;;;;;5058923;28;20216;-79
2023/07/04 00:44:23;;;;;;;3.77;2.57;;;16.50;99.90;;;;;;5060021;28;20197;-79
2023/07/04 00:47:10;;;;;;;4.33;2.63;;;16.50;99.90;;;;;;5061382;28;20182;-81
2023/07/04 00:49:45;;;;;;;3.70;2.53;;;16.40;99.90;;;;;;5059984;28;20182;-77
2023/07/04 00:52:25;;;;;;;3.30;2.80;;;16.40;99.90;;;;;;5059750;28;20177;-79
2023/07/04 00:54:57;;;;;;;4.73;2.60;;;16.40;99.90;;;;;;5059558;28;20169;-79
2023/07/04 00:57:25;;;;;;;4.27;2.77;;;16.40;99.90;;;;;;5061522;28;20169;-80
2023/07/04 00:59:57;;;;;;;4.17;2.80;;;16.40;99.90;;;;;;5060901;28;20200;-79
2023/07/04 01:02:27;;;;;;;3.93;2.60;;;16.40;99.90;;;;;;5059333;28;20197;-79
2023/07/04 01:04:53;;;;;;;3.20;2.70;;;16.40;99.90;;;;;;5059429;28;20632;-79
2023/07/04 01:07:28;;;;;;;3.10;2.70;;;16.30;99.90;;;;;;5059211;28;20170;-79
2023/07/04 01:10:03;;;;;;;4.37;3.10;;;16.30;99.90;;;;;;5058833;28;20563;-80
2023/07/04 01:12:29;;;;;;;4.63;2.90;;;16.40;99.90;;;;;;5060548;28;20213;-80
2023/07/04 01:14:57;;;;;;;4.40;3.00;;;16.40;99.90;;;;;;5058372;28;20723;-79
2023/07/04 01:17:23;;;;;;;4.13;2.70;;;16.40;99.90;;;;;;5058176;28;20197;-79
2023/07/04 01:19:49;;;;;;;3.70;2.80;;;16.40;99.90;;;;;;5058045;28;20188;-80
2023/07/04 01:22:29;;;;;;;3.80;2.77;;;16.40;99.90;;;;;;5059689;28;20239;-80
2023/07/04 01:25:09;;;;;;;4.67;2.97;;;16.50;99.90;;;;;;5058036;28;20187;-79
2023/07/04 01:27:36;;;;;;;3.50;2.93;;;16.50;99.90;;;;;;5058985;28;20174;-79
2023/07/04 01:30:05;;;;;;;3.10;2.67;;;16.40;99.90;;;;;;5059386;28;20174;-79
2023/07/04 01:32:31;;;;;;;4.47;3.30;;;16.40;99.90;;;;;;5059559;28;20190;-79
2023/07/04 01:35:00;;;;;;;4.03;2.80;;;16.40;99.90;;;;;;5060601;28;20176;-80
2023/07/04 01:37:29;;;;;;;4.17;3.13;;;16.40;99.90;;;;;;5058179;28;20231;-79
2023/07/04 01:39:57;;;;;;;5.73;3.17;;;16.30;99.90;;;;;;5057158;28;20170;-79
2023/07/04 01:42:22;;;;;;;5.03;3.43;;;16.30;99.90;;;;;;5058075;28;20185;-79
2023/07/04 01:44:48;;;;;;;4.47;3.00;;;16.20;99.90;;;;;;5059780;28;20622;-79
2023/07/04 01:47:14;;;;;;;4.77;3.20;;;16.20;99.90;;;;;;5058841;28;20174;-80
2023/07/04 01:49:40;;;;;;;4.87;3.07;;;16.30;99.90;;;;;;5057240;28;20177;-80
2023/07/04 01:52:06;;;;;;;5.33;3.40;;;16.20;99.90;;;;;;5058933;28;20181;-79
2023/07/04 01:54:31;;;;;;;6.07;3.60;;;16.10;99.90;;;;;;5058811;28;20190;-79
2023/07/04 01:56:57;;;;;;;4.83;3.70;;;16.10;99.90;;;;;;5057934;28;20185;-79
2023/07/04 01:59:23;;;;;;;6.70;3.53;;;16.00;99.90;;;;;;5057714;28;20269;-79
2023/07/04 02:01:49;;;;;;;5.00;3.63;;;16.00;99.90;;;;;;5058651;28;20202;-81
2023/07/04 02:04:15;;;;;;;5.60;4.13;;;16.00;99.90;;;;;;5058307;28;20197;-79
2023/07/04 02:06:41;;;;;;;6.10;4.13;;;16.00;99.90;;;;;;5058175;28;20211;-79
2023/07/04 02:09:07;;;;;;;4.90;3.70;;;16.00;99.90;;;;;;5058995;28;20178;-79
2023/07/04 02:11:32;;;;;;;4.63;3.87;;;16.00;99.90;;;;;;5057919;28;20184;-79
2023/07/04 02:14:00;;;;;;;6.50;3.87;;;16.00;99.90;;;;;;5058078;28;20205;-80
2023/07/04 02:16:27;;;;;;;5.07;3.70;;;16.00;99.90;;;;;;5057444;28;20248;-79
2023/07/04 02:18:52;;;;;;;5.43;3.80;;;15.90;99.90;;;;;;5057375;28;20180;-79
2023/07/04 02:21:18;;;;;;;7.03;4.37;;;15.90;99.90;;;;;;5057438;28;20255;-79
2023/07/04 02:23:44;;;;;;;8.73;4.03;;;15.90;99.90;;;;;;5056886;28;20220;-79
2023/07/04 02:26:12;;;;;;;5.67;3.70;;;15.90;99.90;;;;;;5056725;28;20174;-79
2023/07/04 02:28:39;;;;;;;5.87;3.77;;;15.90;99.90;;;;;;5057237;28;20256;-79
2023/07/04 02:31:05;;;;;;;5.37;3.90;;;15.90;99.90;;;;;;5057219;28;20585;-79
2023/07/04 02:33:31;;;;;;;5.70;3.80;;;15.90;99.90;;;;;;5057099;28;20197;-79
2023/07/04 02:35:56;;;;;;;5.23;3.83;;;15.80;99.90;;;;;;5057145;28;20180;-79
2023/07/04 02:38:22;;;;;;;5.43;3.40;;;15.80;99.90;;;;;;5056491;28;20213;-80
2023/07/04 02:40:48;;;;;;;4.83;3.50;;;15.80;99.90;;;;;;5056096;28;20209;-81
2023/07/04 02:43:15;;;;;;;5.03;3.43;;;15.80;99.90;;;;;;5056290;28;20185;-80
2023/07/04 02:45:41;;;;;;;5.83;3.70;;;15.80;99.90;;;;;;5058119;28;20213;-79
2023/07/04 02:48:07;;;;;;;6.83;4.13;;;15.70;99.90;;;;;;5058580;28;20177;-79
2023/07/04 02:50:33;;;;;;;5.03;3.60;;;15.70;99.90;;;;;;5056890;28;20169;-79
2023/07/04 02:52:59;;;;;;;4.60;3.47;;;15.70;99.90;;;;;;5057205;28;20284;-79
2023/07/04 02:55:25;;;;;;;6.10;3.80;;;15.70;99.90;;;;;;5056708;28;20646;-81
2023/07/04 02:57:50;;;;;;;4.97;3.50;;;15.60;99.90;;;;;;5056277;28;20205;-81
2023/07/04 03:00:16;;;;;;;6.40;3.30;;;15.60;99.90;;;;;;5059350;28;20205;-79
2023/07/04 03:02:43;;;;;;;6.33;3.67;;;15.60;99.90;;;;;;5062297;28;20197;-79
2023/07/04 03:05:09;;;;;;;5.90;3.63;;;15.60;99.90;;;;;;5060269;28;20174;-79
2023/07/04 03:07:34;;;;;;;6.47;3.90;;;15.50;99.90;;;;;;5059774;28;20177;-79
2023/07/04 03:10:00;;;;;;;4.47;3.43;;;15.50;99.90;;;;;;5060793;28;20170;-79
2023/07/04 03:12:25;;;;;;;5.40;3.80;;;15.50;99.90;;;;;;5060162;28;20201;-80
2023/07/04 03:14:51;;;;;;;6.23;4.00;;;15.40;99.90;;;;;;5060053;28;20216;-79
2023/07/04 03:17:16;;;;;;;5.50;3.80;;;15.40;99.90;;;;;;5061616;28;20170;-79
2023/07/04 03:19:42;;;;;;;6.83;3.97;;;15.30;99.90;;;;;;5060625;28;20213;-79
2023/07/04 03:22:08;;;;;;;5.93;4.20;;;15.30;99.90;;;;;;5059573;28;20256;-79
2023/07/04 03:24:33;;;;;;;6.23;3.73;;;15.20;99.90;;;;;;5060921;28;20208;-79
2023/07/04 03:26:59;;;;;;;6.33;4.20;;;15.30;99.90;;;;;;5059793;28;20195;-79
2023/07/04 03:29:24;;;;;;;6.13;3.83;;;15.30;99.90;;;;;;5060284;28;20177;-79
2023/07/04 03:31:50;;;;;;;6.33;4.07;;;15.30;99.90;;;;;;5058848;28;20173;-79
2023/07/04 03:34:16;;;;;;;5.90;3.87;;;15.30;99.90;;;;;;5059840;28;20716;-79
2023/07/04 03:36:41;;;;;;;5.13;3.57;;;15.30;99.90;;;;;;5060987;28;20640;-79
2023/07/04 03:39:07;;;;;;;5.73;3.80;;;15.30;99.90;;;;;;5057994;28;20184;-79
2023/07/04 03:41:33;;;;;;;5.77;3.67;;;15.30;99.90;;;;;;5059266;28;20252;-80
2023/07/04 03:44:00;;;;;;;5.53;3.70;;;15.30;99.90;;;;;;5058714;28;20190;-79
2023/07/04 03:46:26;;;;;;;4.77;3.60;;;15.30;99.90;;;;;;5060122;28;20170;-79
2023/07/04 03:48:51;;;;;;;6.80;3.90;;;15.30;93.60;;;;;;5059001;28;20231;-79
2023/07/04 03:51:17;;;;;;;7.67;4.73;;;15.30;99.90;;;;;;5058160;28;20177;-79
2023/07/04 03:53:43;;;;;;;8.07;4.63;;;15.20;99.90;;;;;;5060275;28;20197;-81
2023/07/04 03:56:08;;;;;;;8.90;4.60;;;15.20;99.90;;;;;;5059051;28;20209;-79
2023/07/04 03:58:34;;;;;;;10.07;5.10;;;15.20;99.90;;;;;;5058716;28;20271;-78
2023/07/04 04:01:01;;;;;;;8.60;4.73;;;15.20;99.90;;;;;;5059519;28;20210;-79
2023/07/04 04:03:27;;;;;;;6.70;4.17;;;15.20;99.90;;;;;;5058774;28;20209;-81
2023/07/04 04:05:53;;;;;;;6.80;4.27;;;15.20;99.90;;;;;;5058268;28;20180;-79
2023/07/04 04:08:19;;;;;;;7.30;4.00;;;15.10;99.90;;;;;;5058772;28;20616;-79
2023/07/04 04:10:45;;;;;;;6.03;4.07;;;15.00;99.90;;;;;;5057344;28;20177;-79
2023/07/04 04:13:11;;;;;;;7.70;3.80;;;15.00;99.90;;;;;;5059207;28;20216;-79
2023/07/04 04:15:37;;;;;;;7.20;3.90;;;15.00;99.90;;;;;;5057481;28;20177;-78
2023/07/04 04:18:02;;;;;;;7.47;3.60;;;14.90;99.90;;;;;;5057719;28;20185;-79
2023/07/04 04:20:29;;;;;;;7.83;4.20;;;14.80;99.90;;;;;;5057103;28;20205;-81
2023/07/04 04:22:55;;;;;;;5.53;4.00;;;14.80;99.90;;;;;;5061665;28;20201;-80
2023/07/04 04:25:20;;;;;;;8.07;4.10;;;14.80;99.90;;;;;;5059563;28;20177;-80
2023/07/04 04:27:46;;;;;;;7.00;4.30;;;14.90;99.90;;;;;;5059225;28;20170;-80
2023/07/04 04:30:12;;;;;;;6.27;4.00;;;14.90;99.90;;;;;;5058972;28;20636;-80
2023/07/04 04:32:39;;;;;;;5.80;4.10;;;14.90;99.90;;;;;;5060175;28;20536;-80
2023/07/04 04:35:06;;;;;;;7.23;3.67;;;15.00;99.90;;;;;;5061280;28;20201;-80
2023/07/04 04:37:32;;;;;;;6.30;4.10;;;15.00;99.90;;;;;;5062385;28;20200;-80
2023/07/04 04:40:01;;;;;;;7.77;3.90;;;15.10;99.90;;;;;;5060445;28;20201;-80
2023/07/04 04:42:28;;;;;;;6.17;3.97;;;15.10;99.90;;;;;;5061043;28;20249;-83
2023/07/04 04:44:53;;;;;;;6.63;3.97;;;15.20;99.90;;;;;;5060135;28;20223;-83
2023/07/04 04:47:24;;;;;;;8.77;4.63;;;15.30;99.90;;;;;;5058191;28;20205;-84
2023/07/04 04:49:51;;;;;;;6.67;4.10;;;15.40;45.90;;;;;;5056014;28;20180;-81
2023/07/04 04:52:19;;;;;;;6.30;3.70;;;15.70;1.00;;;;;;5055911;28;20200;-80
2023/07/04 04:54:47;;;;;;;7.57;4.13;;;15.90;1.00;;;;;;5057834;28;20173;-83
2023/07/04 04:57:13;;;;;;;6.00;3.80;;;15.90;1.00;;;;;;5057905;28;20166;-83
2023/07/04 04:59:39;;;;;;;6.27;3.73;;;16.00;1.00;;;;;;5057546;28;20182;-82
2023/07/04 05:02:05;;;;;;;6.57;3.90;;;16.00;1.00;;;;;;5059305;28;20209;-82
2023/07/04 05:04:30;;;;;;;8.37;4.30;;;16.00;1.00;;;;;;5056695;28;20204;-81
2023/07/04 05:06:56;;;;;;;8.33;3.80;;;16.20;1.00;;;;;;5056491;28;20173;-82
2023/07/04 05:09:21;;;;;;;6.40;3.70;;;16.30;99.90;;;;;;5057535;28;20242;-82
2023/07/04 05:11:47;;;;;;;6.23;3.80;;;16.40;1.00;;;;;;5055783;28;20177;-83
2023/07/04 05:14:13;;;;;;;5.63;3.60;;;16.40;1.00;;;;;;5056937;28;20635;-82
2023/07/04 05:16:39;;;;;;;5.77;3.90;;;16.30;1.00;;;;;;5055715;28;20178;-83
2023/07/04 05:19:04;;;;;;;5.67;4.03;;;16.40;99.90;;;;;;5058229;28;20263;-84
2023/07/04 05:21:31;;;;;;;6.07;3.80;;;16.50;99.90;;;;;;5057249;28;20239;-81
2023/07/04 05:23:57;;;;;;;6.80;3.87;;;16.50;1.00;;;;;;5063057;28;20185;-80
2023/07/04 05:26:26;;;;;;;8.20;4.30;;;16.50;99.90;;;;;;5065315;28;20189;-80
2023/07/04 05:28:53;;;;;;;8.43;4.17;;;16.40;99.90;;;;;;5064815;28;20189;-79
2023/07/04 05:31:23;;;;;;;8.67;4.10;;;16.30;1.00;;;;;;5058748;28;20178;-82
2023/07/04 05:33:49;;;;;;;7.80;4.17;;;16.20;99.90;;;;;;5064960;28;20204;-82
2023/07/04 05:36:16;;;;;;;5.53;3.60;;;16.20;99.90;;;;;;5064282;28;20257;-82
2023/07/04 05:38:42;;;;;;;6.53;3.77;;;16.20;37.30;;;;;;5064593;28;20196;-82
2023/07/04 05:41:10;;;;;;;7.27;4.20;;;16.20;99.90;;;;;;5063471;28;20692;-81
2023/07/04 05:43:36;;;;;;;6.10;4.03;;;16.20;99.90;;;;;;5064988;28;20198;-83
2023/07/04 05:46:02;;;;;;;6.90;3.77;;;16.30;1.00;;;;;;5065959;28;20265;-82
2023/07/04 05:48:28;;;;;;;6.27;3.70;;;16.30;99.90;;;;;;5065431;28;20590;-82
2023/07/04 05:50:56;;;;;;;6.87;4.17;;;16.30;99.90;;;;;;5069609;28;20178;-83
2023/07/04 05:53:30;;;;;;;6.97;3.20;;;16.30;1.00;;;;;;5064497;28;20597;-82
2023/07/04 05:56:12;;;;;;;7.07;3.47;;;16.40;99.90;;;;;;5055202;28;20172;-83
2023/07/04 05:58:39;;;;;;;6.07;3.40;;;16.40;1.00;;;;;;5054827;28;20177;-82
2023/07/04 06:01:05;;;;;;;6.77;3.13;;;16.40;99.90;;;;;;5053700;28;20195;-81
2023/07/04 06:03:30;;;;;;;7.83;3.20;;;16.40;1.00;;;;;;5053965;28;20193;-81
2023/07/04 06:05:56;;;;;;;5.63;2.90;;;16.50;99.90;;;;;;5055021;28;20162;-81
2023/07/04 06:08:21;;;;;;;8.13;3.03;;;16.50;1.00;;;;;;5053330;28;20174;-81
2023/07/04 06:10:57;;;;;;;6.77;3.37;;;16.50;1.00;;;;;;5054876;28;20219;-81
2023/07/04 06:13:23;;;;;;;7.17;3.30;;;16.60;1.00;;;;;;5056934;28;20220;-81
2023/07/04 06:15:48;;;;;;;4.83;3.40;;;16.60;1.00;;;;;;5058452;28;20178;-82
2023/07/04 06:18:14;;;;;;;6.93;3.00;;;16.60;1.00;;;;;;5056752;28;20265;-81
2023/07/04 06:20:39;;;;;;;5.20;3.20;;;16.70;99.90;;;;;;5044547;28;20254;-80
2023/07/04 06:23:05;;;;;;;7.43;3.17;;;16.80;40.30;;;;;;5036220;28;20610;-82
2023/07/04 06:25:31;;;;;;;6.83;3.10;;;16.80;1.00;;;;;;5036876;28;20589;-81
2023/07/04 06:27:56;;;;;;;5.23;2.93;;;16.80;99.90;;;;;;5038788;28;20171;-81
2023/07/04 06:30:22;;;;;;;4.63;3.00;;;16.80;99.90;;;;;;5035326;28;20179;-82
2023/07/04 06:32:48;;;;;;;9.07;3.13;;;16.90;99.90;;;;;;5038281;28;20284;-82
2023/07/04 06:35:13;;;;;;;8.80;3.20;;;17.00;92.10;;;;;;5036629;28;20228;-82
2023/07/04 06:37:40;;;;;;;5.07;2.87;;;17.00;1.00;;;;;;5039490;28;20236;-82
2023/07/04 06:40:06;;;;;;;5.43;3.10;;;17.00;99.90;;;;;;5038773;28;20790;-81
2023/07/04 06:42:32;;;;;;;5.83;2.90;;;17.20;1.00;;;;;;5038097;28;20270;-82
2023/07/04 06:44:57;;;;;;;6.57;3.47;;;17.10;1.00;;;;;;5038146;28;20194;-82
2023/07/04 06:47:23;;;;;;;7.47;2.93;;;17.20;1.00;;;;;;5033635;28;20289;-81
2023/07/04 06:49:48;;;;;;;6.37;3.00;;;17.20;1.00;;;;;;5036421;28;20170;-81
2023/07/04 06:52:14;;;;;;;4.53;2.40;;;17.30;99.90;;;;;;5036865;28;20202;-81
2023/07/04 06:54:40;;;;;;;6.47;2.80;;;17.30;99.90;;;;;;5035760;28;20516;-80
2023/07/04 06:57:05;;;;;;;5.07;2.73;;;17.40;99.90;;;;;;5032734;28;20186;-82
2023/07/04 06:59:31;;;;;;;8.10;3.07;;;17.40;1.00;;;;;;5033352;28;20273;-81
2023/07/04 07:01:57;;;;;;;5.83;2.80;;;17.40;1.00;;;;;;5034264;28;20238;-82
2023/07/04 07:04:22;;;;;;;4.93;2.80;;;17.40;1.00;;;;;;5035343;28;20182;-82
2023/07/04 07:06:48;;;;;;;8.27;3.00;;;17.50;1.00;;;;;;5033253;28;20233;-79
2023/07/04 07:09:14;;;;;;;7.77;2.73;;;17.50;1.00;;;;;;5031710;28;20179;-82
2023/07/04 07:11:41;;;;;;;5.90;2.83;;;17.60;1.00;;;;;;5032749;28;20179;-82
2023/07/04 07:14:06;;;;;;;6.17;2.80;;;17.70;1.00;;;;;;5031430;28;20348;-82
2023/07/04 07:16:32;;;;;;;5.47;3.13;;;17.90;1.00;;;;;;5034261;28;20186;-80
2023/07/04 07:18:57;;;;;;;5.67;3.00;;;18.00;1.00;;;;;;5036793;28;20181;-79
2023/07/04 07:21:25;;;;;;;5.60;3.10;;;18.10;1.00;;;;;;5037318;28;20217;-79
2023/07/04 07:23:52;;;;;;;6.80;3.10;;;18.20;1.00;;;;;;5038385;28;20201;-79
2023/07/04 07:26:20;;;;;;;6.57;3.03;;;18.30;1.00;;;;;;5038164;28;20171;-78
2023/07/04 07:28:45;;;;;;;5.83;2.77;;;18.30;1.00;;;;;;5036456;28;20270;-79
2023/07/04 07:31:18;;;;;;;4.40;2.50;;;18.40;99.90;;;;;;5039140;28;20209;-79
2023/07/04 07:33:45;;;;;;;4.70;2.70;;;18.30;1.00;;;;;;5038621;28;20198;-79
2023/07/04 07:36:15;;;;;;;6.17;2.60;;;18.40;1.00;;;;;;5038471;28;20200;-79
2023/07/04 07:38:41;;;;;;;4.67;2.70;;;18.40;1.00;;;;;;5037349;28;20185;-79
2023/07/04 07:41:08;;;;;;;6.03;2.70;;;18.40;1.00;;;;;;5035840;28;20285;-79
2023/07/04 07:43:34;;;;;;;4.73;2.40;;;18.50;1.00;;;;;;5035978;28;20736;-79
2023/07/04 07:46:01;;;;;;;5.40;2.70;;;18.50;1.00;;;;;;5042054;28;20170;-79
2023/07/04 07:48:27;;;;;;;5.43;2.60;;;18.70;1.00;;;;;;5040629;28;20182;-79
2023/07/04 07:50:52;;;;;;;5.57;2.70;;;18.70;1.00;;;;;;5040138;28;20182;-79
2023/07/04 07:53:18;;;;;;;4.57;2.60;;;18.80;1.00;;;;;;5042853;28;20232;-79
2023/07/04 07:55:43;;;;;;;5.73;2.77;;;18.80;1.00;;;;;;5041619;28;20178;-79
2023/07/04 07:58:09;;;;;;;4.40;2.60;;;18.80;1.00;;;;;;5041278;28;20186;-79
2023/07/04 08:00:36;;;;;;;5.90;2.43;;;18.80;1.00;;;;;;5042773;28;20198;-79
2023/07/04 08:03:01;;;;;;;4.30;2.30;;;18.90;99.90;;;;;;5043367;28;20607;-79
2023/07/04 08:05:27;;;;;;;7.77;2.67;;;19.00;99.90;;;;;;5042446;28;20220;-80
2023/07/04 08:07:52;;;;;;;6.13;2.70;;;19.00;99.90;;;;;;5042812;28;20179;-79
2023/07/04 08:10:18;;;;;;;5.53;2.70;;;19.10;99.90;;;;;;5042404;28;20182;-79
2023/07/04 08:12:44;;;;;;;4.83;2.40;;;19.10;99.90;;;;;;5041152;28;20210;-79
2023/07/04 08:15:10;;;;;;;3.63;2.33;;;19.10;99.90;;;;;;5041006;28;20178;-80
2023/07/04 08:17:36;;;;;;;4.87;2.70;;;19.10;99.90;;;;;;5043161;28;20171;-79
2023/07/04 08:20:03;;;;;;;4.23;2.20;;;19.30;99.90;;;;;;5040927;28;20170;-80
2023/07/04 08:22:29;;;;;;;5.50;2.70;;;19.40;99.90;;;;;;5042107;28;20228;-79
2023/07/04 08:24:54;;;;;;;4.83;2.70;;;19.40;99.90;;;;;;5041879;28;20170;-79
2023/07/04 08:27:24;;;;;;;3.87;2.40;;;19.50;99.90;;;;;;5041942;28;20170;-79
2023/07/04 08:29:49;;;;;;;4.33;2.73;;;19.50;99.90;;;;;;5040731;28;20663;-80
2023/07/04 08:32:16;;;;;;;4.07;2.53;;;19.50;19.30;;;;;;5044612;28;20273;-80
2023/07/04 08:34:42;;;;;;;4.80;2.60;;;19.70;1.00;;;;;;5043157;28;20190;-82
2023/07/04 08:37:08;;;;;;;5.23;2.50;;;19.70;1.00;;;;;;5038991;28;20186;-80
2023/07/04 08:39:34;;;;;;;4.73;2.43;;;19.80;1.00;;;;;;5038192;28;20178;-80
2023/07/04 08:42:02;;;;;;;4.73;2.63;;;19.90;1.00;;;;;;5038368;28;20213;-80
2023/07/04 08:44:33;;;;;;;5.13;2.83;;;20.10;1.00;;;;;;5042075;28;20174;-79
2023/07/04 08:46:59;;;;;;;4.20;2.63;;;20.30;1.00;;;;;;5042265;28;20265;-79
2023/07/04 08:49:28;;;;;;;5.10;2.90;;;20.50;1.00;;;;;;5041491;28;20205;-80
2023/07/04 08:52:04;;;;;;;5.80;2.85;;;20.60;1.00;;;;;;5038099;28;20188;-79
2023/07/04 08:54:31;;;;;;;4.70;3.03;;;20.60;1.00;;;;;;5045996;28;20178;-81
2023/07/04 08:56:59;;;;;;;7.63;3.17;;;20.70;1.00;;;;;;5047275;28;20186;-81
2023/07/04 08:59:40;;;;;;;5.07;3.17;;;20.60;1.00;;;;;;5047819;28;20171;-81
2023/07/04 09:02:15;;;;;;;3.88;2.95;;;20.80;1.00;;;;;;5049550;28;20292;-81
2023/07/04 09:05:04;;;;;;;5.22;3.10;;;20.80;1.00;;;;;;5048504;28;20170;-81
2023/07/04 09:07:39;;;;;;;4.15;3.05;;;20.80;1.00;;;;;;5051169;28;20205;-81
2023/07/04 09:10:23;;;;;;;4.30;3.17;;;21.00;1.00;;;;;;5050099;28;20174;-82
2023/07/04 09:12:49;;;;;;;5.88;3.33;;;21.10;1.00;;;;;;5051437;28;20288;-82
2023/07/04 09:15:51;;;;;;;4.95;3.10;;;21.10;1.00;;;;;;5051914;28;20185;-81
2023/07/04 09:18:49;;;;;;;3.80;2.83;;;21.10;1.00;;;;;;5052304;28;20181;-82
2023/07/04 09:21:18;;;;;;;4.28;2.80;;;21.20;1.00;;;;;;5039034;28;20209;-83
2023/07/04 09:23:46;;;;;;;6.32;3.40;;;21.20;99.90;;;;;;5044677;28;20673;-82
2023/07/04 09:26:17;;;;;;;6.45;3.17;;;21.10;99.90;;;;;;5040685;28;20236;-81
2023/07/04 09:28:45;;;;;;;6.10;3.40;;;21.30;99.90;;;;;;5039064;28;20547;-81
2023/07/04 09:31:21;;;;;;;5.03;3.22;;;21.30;99.90;;;;;;5039878;28;20178;-81
2023/07/04 09:33:52;;;;;;;4.97;3.83;;;21.50;99.90;;;;;;5039983;28;20698;-81
2023/07/04 09:36:20;;;;;;;7.43;3.80;;;21.60;99.90;;;;;;5040015;28;20174;-83
2023/07/04 09:39:00;;;;;;;6.85;3.70;;;21.70;99.90;;;;;;5039833;28;20178;-81
2023/07/04 09:41:29;;;;;;;5.38;3.38;;;21.80;99.90;;;;;;5042142;28;20232;-81
2023/07/04 09:43:56;;;;;;;4.22;3.40;;;22.00;99.90;;;;;;5040798;28;20225;-81
2023/07/04 09:46:28;;;;;;;6.72;3.78;;;22.10;99.90;;;;;;5040433;28;20174;-81
2023/07/04 09:49:15;;;;;;;5.53;4.03;;;22.20;99.90;;;;;;5042036;28;20642;-81
2023/07/04 09:51:40;;;;;;;6.70;3.90;;;22.20;99.90;;;;;;5041231;28;20554;-81
2023/07/04 09:54:16;;;;;;;5.32;3.90;;;22.20;99.90;;;;;;5042493;28;20198;-81
2023/07/04 09:56:42;;;;;;;7.70;3.72;;;22.10;99.90;;;;;;5041526;28;20181;-82
2023/07/04 09:59:15;;;;;;;5.03;3.72;;;22.30;99.90;;;;;;5042650;28;20170;-81
2023/07/04 10:01:47;;;;;;;5.93;3.45;;;22.40;99.90;;;;;;5041368;28;20268;-81
2023/07/04 10:04:24;;;;;;;5.57;4.10;;;22.40;99.90;;;;;;5038814;28;20200;-81
2023/07/04 10:06:52;;;;;;;7.03;4.25;;;22.60;99.90;;;;;;5036152;28;20174;-81
2023/07/04 10:09:20;;;;;;;7.07;3.90;;;22.70;99.90;;;;;;5042678;28;20258;-81
2023/07/04 10:11:51;;;;;;;6.07;3.92;;;22.70;99.90;;;;;;5046025;28;20162;-82
2023/07/04 10:14:29;;;;;;;5.03;3.60;;;22.80;99.90;;;;;;5044641;28;20214;-79
2023/07/04 10:16:55;;;;;;;5.03;3.85;;;22.80;99.90;;;;;;5040261;28;20184;-81
2023/07/04 10:19:22;;;;;;;7.32;4.20;;;22.90;99.90;;;;;;5036560;28;20174;-81
2023/07/04 10:21:51;;;;;;;6.25;3.97;;;23.20;99.90;;;;;;5033717;28;20305;-80
2023/07/04 10:24:23;;;;;;;5.57;4.20;;;23.00;99.90;;;;;;5033964;28;20191;-80
2023/07/04 10:26:56;;;;;;;6.13;4.30;;;23.00;99.90;;;;;;5034873;28;20170;-79
2023/07/04 10:29:38;;;;;;;6.13;3.97;;;23.10;99.90;;;;;;5035743;28;20170;-78
2023/07/04 10:32:08;;;;;;;6.38;4.15;;;23.30;99.90;;;;;;5036762;28;20236;-79
2023/07/04 10:34:36;;;;;;;6.15;4.35;;;23.30;99.90;;;;;;5035177;28;20193;-80
2023/07/04 10:37:03;;;;;;;5.10;4.40;;;23.50;99.90;;;;;;5035808;28;20265;-79
2023/07/04 10:39:32;;;;;;;7.82;4.07;;;23.60;99.90;;;;;;5036297;28;20178;-79
2023/07/04 10:42:21;;;;;;;6.43;4.22;;;23.70;99.90;;;;;;5033967;28;20229;-79
2023/07/04 10:44:51;;;;;;;6.25;4.57;;;23.70;99.90;;;;;;5035715;28;20241;-79
2023/07/04 10:47:30;;;;;;;5.90;4.10;;;23.60;99.90;;;;;;5034512;28;20204;-80
2023/07/04 10:50:04;;;;;;;6.65;4.55;;;23.80;99.90;;;;;;5033758;28;20253;-79
2023/07/04 10:52:34;;;;;;;5.95;4.82;;;23.80;99.90;;;;;;5034150;28;20197;-80
2023/07/04 10:55:00;;;;;;;6.88;4.88;;;23.80;99.90;;;;;;5036200;28;20174;-81
2023/07/04 10:57:35;;;;;;;5.68;4.85;;;23.80;99.90;;;;;;5035874;28;20174;-81
2023/07/04 11:00:24;;;;;;;5.13;4.10;;;23.70;99.90;;;;;;5035017;28;20165;-80
2023/07/04 11:02:57;;;;;;;7.18;4.45;;;23.70;99.90;;;;;;5037967;28;20202;-81
2023/07/04 11:05:38;;;;;;;6.97;4.80;;;24.00;99.90;;;;;;5036279;28;20174;-82
2023/07/04 11:08:08;;;;;;;6.82;4.70;;;24.10;99.90;;;;;;5037529;28;20197;-82
2023/07/04 11:10:41;;;;;;;6.60;4.50;;;24.10;99.90;;;;;;5036760;28;20257;-81
2023/07/04 11:13:07;;;;;;;8.82;4.97;;;24.30;99.90;;;;;;5036949;28;20221;-82
2023/07/04 11:15:38;;;;;;;6.10;4.93;;;24.30;99.90;;;;;;5037545;28;20186;-81
2023/07/04 11:18:05;;;;;;;6.18;4.55;;;24.60;99.90;;;;;;5039437;28;20182;-82
2023/07/04 11:20:40;;;;;;;6.20;4.60;;;24.70;99.90;;;;;;5040454;28;20328;-78
2023/07/04 11:23:18;;;;;;;5.93;4.97;;;24.70;99.90;;;;;;5039504;28;20741;-80
2023/07/04 11:25:44;;;;;;;6.63;4.97;;;24.40;99.90;;;;;;5040069;28;20151;-79
2023/07/04 11:28:15;;;;;;;7.80;5.03;;;24.40;99.90;;;;;;5039681;28;20177;-79
2023/07/04 11:30:42;;;;;;;6.43;5.10;;;24.60;99.90;;;;;;5037410;28;20182;-79
2023/07/04 11:33:08;;;;;;;7.80;4.70;;;24.60;99.90;;;;;;5039495;28;20224;-79
2023/07/04 11:35:36;;;;;;;8.38;5.68;;;24.70;99.90;;;;;;5038646;28;20612;-80
2023/07/04 11:38:15;;;;;;;8.30;5.35;;;24.50;99.90;;;;;;5038536;28;20198;-79
2023/07/04 11:40:45;;;;;;;6.47;5.10;;;24.30;99.90;;;;;;5037491;28;20696;-79
2023/07/04 11:43:40;;;;;;;8.88;5.40;;;24.60;99.90;;;;;;5039265;28;20186;-80
2023/07/04 11:46:06;;;;;;;6.97;4.90;;;25.00;99.90;;;;;;5037232;28;20202;-78
2023/07/04 11:48:34;;;;;;;7.35;5.38;;;24.90;99.90;;;;;;5038286;28;20166;-79
2023/07/04 11:51:11;;;;;;;6.57;4.97;;;24.90;99.90;;;;;;5038276;28;20174;-79
2023/07/04 11:53:46;;;;;;;6.57;5.22;;;24.60;99.90;;;;;;5039030;28;20647;-80
2023/07/04 11:56:23;;;;;;;7.60;6.05;;;24.80;99.90;;;;;;5037764;28;20177;-79
2023/07/04 11:59:11;;;;;;;6.88;5.70;;;24.90;99.90;;;;;;5038796;28;20180;-80
2023/07/04 12:01:53;;;;;;;7.15;5.50;;;25.00;99.90;;;;;;5037009;28;20194;-80
2023/07/04 12:04:38;;;;;;;8.38;6.60;;;25.60;99.90;;;;;;5038354;28;20247;-79
2023/07/04 12:07:31;;;;;;;7.15;5.65;;;25.50;99.90;;;;;;5036873;28;20157;-78
2023/07/04 12:10:17;;;;;;;8.40;6.15;;;24.80;99.90;;;;;;5035029;28;20174;-78
2023/07/04 12:12:44;;;;;;;7.25;5.90;;;24.70;99.90;;;;;;5062813;22;20266;-83
2023/07/04 12:15:20;;;;;;;8.75;6.90;;;24.50;99.90;;;;;;5058232;28;20174;-82
2023/07/04 12:17:48;;;;;;;8.60;6.57;;;24.40;99.90;;;;;;5040169;28;20157;-82
2023/07/04 12:20:19;;;;;;;8.07;6.00;;;24.80;99.90;;;;;;5057769;28;20173;-82
2023/07/04 12:22:52;;;;;;;6.50;5.80;;;25.40;99.90;;;;;;5058179;28;20154;-81
2023/07/04 12:25:27;;;;;;;7.30;6.10;;;25.60;99.90;;;;;;5040493;28;20154;-81
2023/07/04 12:27:58;;;;;;;7.38;5.68;;;25.50;99.90;;;;;;5057568;28;20176;-82
2023/07/04 12:30:24;;;;;;;7.68;6.20;;;25.70;99.90;;;;;;5055040;28;20173;-81
2023/07/04 12:32:53;;;;;;;7.93;6.80;;;25.80;99.90;;;;;;5037218;28;20278;-82
2023/07/04 12:35:30;;;;;;;7.60;6.03;;;25.80;99.90;;;;;;5055544;28;20170;-82
2023/07/04 12:37:57;;;;;;;6.93;5.82;;;26.00;99.90;;;;;;5037311;28;20169;-82
2023/07/04 12:40:28;;;;;;;7.80;6.78;;;26.00;98.60;;;;;;5055798;28;20166;-82
2023/07/04 12:42:55;;;;;;;8.00;6.55;;;26.00;96.40;;;;;;5057073;28;20190;-82
2023/07/04 12:45:25;;;;;;;7.80;6.47;;;26.00;91.30;;;;;;5039346;28;20170;-83
2023/07/04 12:47:54;;;;;;;8.82;7.13;;;26.10;82.60;;;;;;5039876;28;20169;-83
2023/07/04 12:50:20;;;;;;;8.50;6.93;;;26.40;81.50;;;;;;5057242;28;20170;-81
2023/07/04 12:52:48;;;;;;;8.95;6.80;;;26.30;65.40;;;;;;5057276;28;20184;-81
2023/07/04 12:55:30;;;;;;;10.23;6.95;;;26.30;69.40;;;;;;5040046;28;20170;-81
2023/07/04 12:57:57;;;;;;;7.55;6.45;;;26.20;62.90;;;;;;5057721;28;20181;-82